createdAt,value
2018-12-04T00:00:00.327Z,0
2018-12-04T00:01:02.360Z,0
2018-12-04T00:02:05.924Z,0
2018-12-04T00:03:08.244Z,0
2018-12-04T00:04:10.287Z,0
2018-12-04T00:05:12.631Z,0
2018-12-04T00:06:14.662Z,0
2018-12-04T00:07:16.710Z,0
2018-12-04T00:08:18.752Z,0
2018-12-04T00:09:20.795Z,0
2018-12-04T00:10:23.215Z,0
2018-12-04T00:11:25.554Z,0
2018-12-04T00:12:27.574Z,0
2018-12-04T00:13:29.619Z,0
2018-12-04T00:14:31.658Z,0
2018-12-04T00:15:34.066Z,0
2018-12-04T00:16:36.311Z,0
2018-12-04T00:17:40.051Z,0
2018-12-04T00:18:42.763Z,0
2018-12-04T00:19:45.186Z,0
2018-12-04T00:20:47.219Z,0
2018-12-04T00:21:49.242Z,0
2018-12-04T00:22:51.272Z,0
2018-12-04T00:23:53.593Z,0
2018-12-04T00:24:55.652Z,0
2018-12-04T00:25:57.760Z,0
2018-12-04T00:26:59.886Z,0
2018-12-04T00:28:02.062Z,0
2018-12-04T00:29:04.474Z,0
2018-12-04T00:30:06.634Z,0
2018-12-04T00:31:08.764Z,0
2018-12-04T00:32:10.883Z,0
2018-12-04T00:33:13.075Z,0
2018-12-04T00:34:15.201Z,0
2018-12-04T00:35:17.328Z,0
2018-12-04T00:36:19.468Z,0
2018-12-04T00:37:21.638Z,0
2018-12-04T00:38:23.777Z,0
2018-12-04T00:39:25.924Z,0
2018-12-04T00:40:28.431Z,0
2018-12-04T00:41:30.591Z,0
2018-12-04T00:42:32.717Z,0
2018-12-04T00:43:35.133Z,0
2018-12-04T00:44:37.257Z,0
2018-12-04T00:45:39.397Z,0
2018-12-04T00:46:41.530Z,0
2018-12-04T00:47:43.659Z,0
2018-12-04T00:48:45.789Z,0
2018-12-04T00:49:47.922Z,0
2018-12-04T00:50:50.052Z,0
2018-12-04T00:51:52.178Z,0
2018-12-04T00:52:54.347Z,0
2018-12-04T00:53:56.502Z,0
2018-12-04T00:54:58.679Z,0
2018-12-04T00:56:00.803Z,0
2018-12-04T00:57:03.351Z,0
2018-12-04T00:58:05.476Z,0
2018-12-04T00:59:07.595Z,0
2018-12-04T01:00:10.051Z,0
2018-12-04T01:01:12.256Z,0
2018-12-04T01:02:14.375Z,0
2018-12-04T01:03:16.848Z,0
2018-12-04T01:04:18.977Z,0
2018-12-04T01:05:21.106Z,0
2018-12-04T01:06:23.547Z,0
2018-12-04T01:07:25.669Z,0
2018-12-04T01:08:27.827Z,0
2018-12-04T01:09:29.953Z,0
2018-12-04T01:10:32.093Z,0
2018-12-04T01:11:34.251Z,0
2018-12-04T01:12:36.371Z,0
2018-12-04T01:13:38.780Z,0
2018-12-04T01:14:40.906Z,0
2018-12-04T01:15:43.344Z,0
2018-12-04T01:16:45.765Z,0
2018-12-04T01:17:48.179Z,0
2018-12-04T01:18:50.961Z,0
2018-12-04T01:19:53.407Z,0
2018-12-04T01:20:55.540Z,0
2018-12-04T01:21:57.656Z,0
2018-12-04T01:23:00.088Z,0
2018-12-04T01:24:02.204Z,0
2018-12-04T01:25:04.331Z,0
2018-12-04T01:26:06.502Z,0
2018-12-04T01:27:08.630Z,0
2018-12-04T01:28:10.745Z,0
2018-12-04T01:29:12.881Z,0
2018-12-04T01:30:14.994Z,0
2018-12-04T01:31:17.119Z,0
2018-12-04T01:32:19.252Z,0
2018-12-04T01:33:21.670Z,0
2018-12-04T01:34:24.166Z,0
2018-12-04T01:35:26.304Z,0
2018-12-04T01:36:28.419Z,0
2018-12-04T01:37:30.539Z,0
2018-12-04T01:38:32.678Z,0
2018-12-04T01:39:34.789Z,0
2018-12-04T01:40:36.918Z,0
2018-12-04T01:41:39.030Z,0
2018-12-04T01:42:41.559Z,0
2018-12-04T01:43:43.675Z,0
2018-12-04T01:44:45.808Z,0
2018-12-04T01:45:48.314Z,0
2018-12-04T01:46:50.422Z,0
2018-12-04T01:47:52.556Z,0
2018-12-04T01:48:54.661Z,0
2018-12-04T01:49:56.780Z,0
2018-12-04T01:50:59.173Z,0
2018-12-04T01:52:01.372Z,0
2018-12-04T01:53:03.489Z,0
2018-12-04T01:54:05.931Z,0
2018-12-04T01:55:08.441Z,0
2018-12-04T01:56:11.182Z,0
2018-12-04T01:57:13.289Z,0
2018-12-04T01:58:15.410Z,0
2018-12-04T01:59:17.537Z,0
2018-12-04T02:00:19.660Z,0
2018-12-04T02:01:21.765Z,0
2018-12-04T02:02:23.885Z,0
2018-12-04T02:03:26.000Z,0
2018-12-04T02:04:28.123Z,0
2018-12-04T02:05:30.814Z,0
2018-12-04T02:06:33.213Z,0
2018-12-04T02:07:35.327Z,0
2018-12-04T02:08:37.466Z,0
2018-12-04T02:09:39.590Z,0
2018-12-04T02:10:41.701Z,0
2018-12-04T02:11:43.839Z,0
2018-12-04T02:12:45.955Z,0
2018-12-04T02:13:48.379Z,0
2018-12-04T02:14:50.498Z,0
2018-12-04T02:15:52.624Z,0
2018-12-04T02:16:55.030Z,0
2018-12-04T02:17:57.156Z,0
2018-12-04T02:18:59.314Z,0
2018-12-04T02:20:01.814Z,0
2018-12-04T02:21:05.263Z,0
2018-12-04T02:22:07.497Z,0
2018-12-04T02:23:09.624Z,0
2018-12-04T02:24:11.734Z,0
2018-12-04T02:25:13.877Z,0
2018-12-04T02:26:15.997Z,0
2018-12-04T02:27:18.121Z,0
2018-12-04T02:28:20.246Z,0
2018-12-04T02:29:22.341Z,0
2018-12-04T02:30:24.472Z,0
2018-12-04T02:31:26.610Z,0
2018-12-04T02:32:28.751Z,0
2018-12-04T02:33:30.935Z,0
2018-12-04T02:34:33.050Z,0
2018-12-04T02:35:35.176Z,0
2018-12-04T02:36:37.322Z,0
2018-12-04T02:37:39.446Z,0
2018-12-04T02:38:41.725Z,0
2018-12-04T02:39:44.472Z,0
2018-12-04T02:40:46.588Z,0
2018-12-04T02:41:48.733Z,0
2018-12-04T02:42:50.854Z,0
2018-12-04T02:43:52.979Z,0
2018-12-04T02:44:55.396Z,0
2018-12-04T02:45:57.904Z,0
2018-12-04T02:47:00.339Z,0
2018-12-04T02:48:02.487Z,0
2018-12-04T02:49:04.903Z,0
2018-12-04T02:50:07.406Z,0
2018-12-04T02:51:09.540Z,0
2018-12-04T02:52:11.692Z,0
2018-12-04T02:53:14.101Z,0
2018-12-04T02:54:16.536Z,0
2018-12-04T02:55:18.636Z,0
2018-12-04T02:56:21.049Z,0
2018-12-04T02:57:23.171Z,0
2018-12-04T02:58:25.587Z,0
2018-12-04T02:59:28.081Z,0
2018-12-04T03:00:30.598Z,0
2018-12-04T03:01:32.722Z,0
2018-12-04T03:02:34.837Z,0
2018-12-04T03:03:36.968Z,0
2018-12-04T03:04:39.086Z,0
2018-12-04T03:05:41.787Z,0
2018-12-04T03:06:43.917Z,0
2018-12-04T03:07:46.054Z,0
2018-12-04T03:08:48.190Z,0
2018-12-04T03:09:50.301Z,0
2018-12-04T03:10:52.424Z,0
2018-12-04T03:11:54.556Z,0
2018-12-04T03:12:56.684Z,0
2018-12-04T03:13:58.796Z,0
2018-12-04T03:15:00.941Z,0
2018-12-04T03:16:03.079Z,0
2018-12-04T03:17:05.207Z,0
2018-12-04T03:18:07.387Z,0
2018-12-04T03:19:09.492Z,0
2018-12-04T03:20:11.631Z,0
2018-12-04T03:21:13.750Z,0
2018-12-04T03:22:15.889Z,0
2018-12-04T03:23:18.012Z,0
2018-12-04T03:24:20.143Z,0
2018-12-04T03:25:22.863Z,0
2018-12-04T03:26:25.650Z,0
2018-12-04T03:27:27.790Z,0
2018-12-04T03:28:29.892Z,0
2018-12-04T03:29:32.301Z,0
2018-12-04T03:30:34.693Z,0
2018-12-04T03:31:37.139Z,0
2018-12-04T03:32:39.296Z,0
2018-12-04T03:33:42.220Z,0
2018-12-04T03:34:44.389Z,0
2018-12-04T03:35:46.494Z,0
2018-12-04T03:36:48.915Z,0
2018-12-04T03:37:51.727Z,0
2018-12-04T03:38:53.839Z,0
2018-12-04T03:39:55.970Z,0
2018-12-04T03:40:58.096Z,0
2018-12-04T03:42:00.498Z,0
2018-12-04T03:43:02.633Z,0
2018-12-04T03:44:04.806Z,0
2018-12-04T03:45:06.926Z,0
2018-12-04T03:46:09.728Z,0
2018-12-04T03:47:11.916Z,0
2018-12-04T03:48:14.017Z,0
2018-12-04T03:49:16.145Z,0
2018-12-04T03:50:18.272Z,0
2018-12-04T03:51:20.383Z,0
2018-12-04T03:52:22.513Z,0
2018-12-04T03:53:24.637Z,0
2018-12-04T03:54:27.146Z,0
2018-12-04T03:55:29.545Z,0
2018-12-04T03:56:31.697Z,0
2018-12-04T03:57:33.807Z,0
2018-12-04T03:58:35.926Z,0
2018-12-04T03:59:39.044Z,0
2018-12-04T04:00:41.430Z,0
2018-12-04T04:01:43.563Z,0
2018-12-04T04:02:46.089Z,0
2018-12-04T04:03:48.214Z,0
2018-12-04T04:04:50.329Z,0
2018-12-04T04:05:52.464Z,0
2018-12-04T04:06:54.879Z,0
2018-12-04T04:07:57.284Z,0
2018-12-04T04:08:59.418Z,0
2018-12-04T04:10:01.530Z,0
2018-12-04T04:11:03.655Z,0
2018-12-04T04:12:05.797Z,0
2018-12-04T04:13:08.213Z,0
2018-12-04T04:14:10.755Z,0
2018-12-04T04:15:13.491Z,0
2018-12-04T04:16:15.612Z,0
2018-12-04T04:17:17.741Z,0
2018-12-04T04:18:19.870Z,0
2018-12-04T04:19:22.018Z,0
2018-12-04T04:20:24.145Z,0
2018-12-04T04:21:26.292Z,0
2018-12-04T04:22:28.426Z,0
2018-12-04T04:23:30.540Z,0
2018-12-04T04:24:32.670Z,0
2018-12-04T04:25:35.095Z,0
2018-12-04T04:26:37.210Z,0
2018-12-04T04:27:39.721Z,0
2018-12-04T04:28:41.832Z,0
2018-12-04T04:29:43.972Z,0
2018-12-04T04:30:46.488Z,0
2018-12-04T04:31:48.890Z,0
2018-12-04T04:32:51.417Z,0
2018-12-04T04:33:53.913Z,0
2018-12-04T04:34:56.070Z,0
2018-12-04T04:35:58.198Z,0
2018-12-04T04:37:00.608Z,0
2018-12-04T04:38:02.711Z,0
2018-12-04T04:39:05.409Z,0
2018-12-04T04:40:07.535Z,0
2018-12-04T04:41:09.651Z,0
2018-12-04T04:42:12.691Z,0
2018-12-04T04:43:14.810Z,0
2018-12-04T04:44:17.269Z,0
2018-12-04T04:45:19.406Z,0
2018-12-04T04:46:21.533Z,0
2018-12-04T04:47:23.669Z,0
2018-12-04T04:48:25.821Z,0
2018-12-04T04:49:27.953Z,0
2018-12-04T04:50:30.094Z,0
2018-12-04T04:51:32.224Z,0
2018-12-04T04:52:34.726Z,0
2018-12-04T04:53:36.842Z,0
2018-12-04T04:54:39.000Z,0
2018-12-04T04:55:41.134Z,0
2018-12-04T04:56:43.654Z,0
2018-12-04T04:57:46.075Z,0
2018-12-04T04:58:48.195Z,0
2018-12-04T04:59:50.319Z,0
2018-12-04T05:00:52.765Z,0
2018-12-04T05:01:54.912Z,0
2018-12-04T05:02:57.619Z,0
2018-12-04T05:04:00.126Z,0
2018-12-04T05:05:03.206Z,0
2018-12-04T05:06:05.364Z,0
2018-12-04T05:07:07.481Z,0
2018-12-04T05:08:09.624Z,0
2018-12-04T05:09:11.759Z,0
2018-12-04T05:10:13.896Z,0
2018-12-04T05:11:16.001Z,0
2018-12-04T05:12:18.155Z,0
2018-12-04T05:13:20.591Z,0
2018-12-04T05:14:22.726Z,0
2018-12-04T05:15:25.166Z,0
2018-12-04T05:16:27.295Z,0
2018-12-04T05:17:29.714Z,0
2018-12-04T05:18:31.851Z,0
2018-12-04T05:19:34.269Z,0
2018-12-04T05:20:36.382Z,0
2018-12-04T05:21:38.499Z,0
2018-12-04T05:22:40.894Z,0
2018-12-04T05:23:43.014Z,0
2018-12-04T05:24:45.149Z,0
2018-12-04T05:25:47.655Z,0
2018-12-04T05:26:49.820Z,0
2018-12-04T05:27:51.947Z,0
2018-12-04T05:28:54.454Z,0
2018-12-04T05:29:56.567Z,0
2018-12-04T05:30:58.713Z,0
2018-12-04T05:32:00.810Z,0
2018-12-04T05:33:02.940Z,0
2018-12-04T05:34:05.457Z,0
2018-12-04T05:35:08.163Z,0
2018-12-04T05:36:10.553Z,0
2018-12-04T05:37:12.686Z,0
2018-12-04T05:38:14.842Z,0
2018-12-04T05:39:16.952Z,0
2018-12-04T05:40:20.303Z,0
2018-12-04T05:41:22.529Z,0
2018-12-04T05:42:24.669Z,0
2018-12-04T05:43:27.103Z,0
2018-12-04T05:44:29.212Z,0
2018-12-04T05:45:31.357Z,0
2018-12-04T05:46:33.476Z,0
2018-12-04T05:47:35.865Z,0
2018-12-04T05:48:38.023Z,0
2018-12-04T05:49:40.154Z,0
2018-12-04T05:50:42.278Z,0
2018-12-04T05:51:44.419Z,0
2018-12-04T05:52:46.541Z,0
2018-12-04T05:53:48.689Z,0
2018-12-04T05:54:50.815Z,0
2018-12-04T05:55:52.936Z,0
2018-12-04T05:56:55.071Z,0
2018-12-04T05:57:57.210Z,0
2018-12-04T05:58:59.334Z,0
2018-12-04T06:00:01.835Z,0
2018-12-04T06:01:04.039Z,0
2018-12-04T06:02:06.157Z,0
2018-12-04T06:03:08.265Z,0
2018-12-04T06:04:10.393Z,0
2018-12-04T06:05:12.488Z,0
2018-12-04T06:06:14.940Z,0
2018-12-04T06:07:17.062Z,0
2018-12-04T06:08:19.188Z,0
2018-12-04T06:09:21.674Z,0
2018-12-04T06:10:24.192Z,0
2018-12-04T06:11:26.312Z,0
2018-12-04T06:12:28.421Z,0
2018-12-04T06:13:30.560Z,0
2018-12-04T06:14:32.947Z,0
2018-12-04T06:15:35.067Z,0
2018-12-04T06:16:37.184Z,0
2018-12-04T06:17:39.318Z,0
2018-12-04T06:18:41.703Z,0
2018-12-04T06:19:43.837Z,0
2018-12-04T06:20:46.279Z,0
2018-12-04T06:21:48.657Z,0
2018-12-04T06:22:50.778Z,0
2018-12-04T06:23:53.280Z,0
2018-12-04T06:24:55.383Z,0
2018-12-04T06:25:57.498Z,0
2018-12-04T06:26:59.634Z,0
2018-12-04T06:28:01.759Z,0
2018-12-04T06:29:04.170Z,0
2018-12-04T06:30:06.304Z,4
2018-12-04T06:31:08.417Z,4
2018-12-04T06:32:10.532Z,4
2018-12-04T06:33:12.654Z,0
2018-12-04T06:34:14.758Z,4
2018-12-04T06:35:16.879Z,4
2018-12-04T06:36:19.019Z,4
2018-12-04T06:37:21.139Z,4
2018-12-04T06:38:23.275Z,8
2018-12-04T06:39:25.681Z,8
2018-12-04T06:40:27.809Z,8
2018-12-04T06:41:29.922Z,12
2018-12-04T06:42:32.048Z,16
2018-12-04T06:43:34.151Z,16
2018-12-04T06:44:36.275Z,16
2018-12-04T06:45:38.401Z,20
2018-12-04T06:46:40.496Z,24
2018-12-04T06:47:42.623Z,28
2018-12-04T06:48:44.738Z,36
2018-12-04T06:49:46.869Z,40
2018-12-04T06:50:48.975Z,48
2018-12-04T06:51:51.103Z,56
2018-12-04T06:52:53.244Z,64
2018-12-04T06:53:55.362Z,72
2018-12-04T06:54:57.505Z,88
2018-12-04T06:55:59.630Z,96
2018-12-04T06:57:01.753Z,112
2018-12-04T06:58:03.870Z,128
2018-12-04T06:59:05.984Z,144
2018-12-04T07:00:08.135Z,160
2018-12-04T07:01:10.250Z,180
2018-12-04T07:02:12.664Z,200
2018-12-04T07:03:14.782Z,224
2018-12-04T07:04:16.896Z,244
2018-12-04T07:05:19.011Z,268
2018-12-04T07:06:21.160Z,288
2018-12-04T07:07:23.281Z,316
2018-12-04T07:08:25.683Z,344
2018-12-04T07:09:27.805Z,372
2018-12-04T07:10:29.914Z,400
2018-12-04T07:11:32.340Z,432
2018-12-04T07:12:34.447Z,468
2018-12-04T07:13:36.564Z,500
2018-12-04T07:14:39.347Z,540
2018-12-04T07:15:41.485Z,580
2018-12-04T07:16:43.620Z,624
2018-12-04T07:17:45.738Z,672
2018-12-04T07:18:47.876Z,716
2018-12-04T07:19:49.975Z,764
2018-12-04T07:20:52.100Z,816
2018-12-04T07:21:54.217Z,868
2018-12-04T07:22:57.136Z,920
2018-12-04T07:23:59.585Z,976
2018-12-04T07:25:01.991Z,1036
2018-12-04T07:26:04.132Z,1092
2018-12-04T07:27:06.242Z,1152
2018-12-04T07:28:08.376Z,1212
2018-12-04T07:29:10.489Z,1288
2018-12-04T07:30:12.608Z,1372
2018-12-04T07:31:14.737Z,1448
2018-12-04T07:32:16.856Z,1592
2018-12-04T07:33:18.965Z,1736
2018-12-04T07:34:21.773Z,1812
2018-12-04T07:35:23.915Z,1960
2018-12-04T07:36:26.032Z,2380
2018-12-04T07:37:28.138Z,2912
2018-12-04T07:38:30.259Z,3196
2018-12-04T07:39:32.394Z,3080
2018-12-04T07:40:34.510Z,2696
2018-12-04T07:41:36.729Z,2380
2018-12-04T07:42:39.192Z,2320
2018-12-04T07:43:41.355Z,2336
2018-12-04T07:44:43.769Z,2328
2018-12-04T07:45:45.872Z,2376
2018-12-04T07:46:49.397Z,2472
2018-12-04T07:47:51.498Z,2572
2018-12-04T07:48:53.627Z,2648
2018-12-04T07:49:55.744Z,2728
2018-12-04T07:50:57.862Z,2824
2018-12-04T07:51:59.993Z,2916
2018-12-04T07:53:02.097Z,3012
2018-12-04T07:54:04.234Z,3100
2018-12-04T07:55:06.352Z,3192
2018-12-04T07:56:08.475Z,3280
2018-12-04T07:57:10.592Z,3368
2018-12-04T07:58:12.721Z,3504
2018-12-04T07:59:15.116Z,3660
2018-12-04T08:00:17.223Z,3844
2018-12-04T08:01:19.639Z,3984
2018-12-04T08:02:21.744Z,4148
2018-12-04T08:03:23.875Z,4264
2018-12-04T08:04:27.268Z,4360
2018-12-04T08:05:29.388Z,4588
2018-12-04T08:06:31.504Z,5488
2018-12-04T08:07:33.637Z,6756
2018-12-04T08:08:35.761Z,8068
2018-12-04T08:09:37.878Z,8468
2018-12-04T08:10:40.024Z,8740
2018-12-04T08:11:42.137Z,9180
2018-12-04T08:12:44.263Z,9580
2018-12-04T08:13:46.375Z,10124
2018-12-04T08:14:48.497Z,10608
2018-12-04T08:15:50.618Z,11136
2018-12-04T08:16:52.726Z,11552
2018-12-04T08:17:54.858Z,11756
2018-12-04T08:18:57.248Z,12120
2018-12-04T08:19:59.367Z,12516
2018-12-04T08:21:01.465Z,12832
2018-12-04T08:22:03.890Z,13032
2018-12-04T08:23:05.998Z,13440
2018-12-04T08:24:08.107Z,13880
2018-12-04T08:25:10.236Z,14528
2018-12-04T08:26:12.337Z,14868
2018-12-04T08:27:14.496Z,15392
2018-12-04T08:28:17.008Z,16032
2018-12-04T08:29:19.138Z,16384
2018-12-04T08:30:21.244Z,16800
2018-12-04T08:31:23.380Z,16960
2018-12-04T08:32:25.491Z,16736
2018-12-04T08:33:27.604Z,17216
2018-12-04T08:34:29.752Z,17280
2018-12-04T08:35:31.865Z,17664
2018-12-04T08:36:34.264Z,18752
2018-12-04T08:37:36.402Z,20288
2018-12-04T08:38:38.524Z,20928
2018-12-04T08:39:40.641Z,21440
2018-12-04T08:40:42.787Z,21760
2018-12-04T08:41:44.916Z,22144
2018-12-04T08:42:47.326Z,21952
2018-12-04T08:43:49.747Z,22720
2018-12-04T08:44:51.879Z,22848
2018-12-04T08:45:53.993Z,23168
2018-12-04T08:46:56.127Z,23008
2018-12-04T08:47:58.238Z,23584
2018-12-04T08:49:00.361Z,25056
2018-12-04T08:50:02.491Z,24352
2018-12-04T08:51:04.906Z,27808
2018-12-04T08:52:07.342Z,26848
2018-12-04T08:53:09.477Z,25376
2018-12-04T08:54:11.606Z,25600
2018-12-04T08:55:13.725Z,26624
2018-12-04T08:56:15.857Z,25824
2018-12-04T08:57:18.655Z,24480
2018-12-04T08:58:20.774Z,23328
2018-12-04T08:59:22.912Z,25280
2018-12-04T09:00:25.028Z,27520
2018-12-04T09:01:27.536Z,27552
2018-12-04T09:02:29.657Z,28192
2018-12-04T09:03:31.798Z,27968
2018-12-04T09:04:33.909Z,26976
2018-12-04T09:05:36.432Z,26432
2018-12-04T09:06:38.575Z,29120
2018-12-04T09:07:41.075Z,30496
2018-12-04T09:08:43.246Z,29632
2018-12-04T09:09:45.536Z,29760
2018-12-04T09:10:47.643Z,30816
2018-12-04T09:11:49.944Z,30720
2018-12-04T09:12:52.080Z,31104
2018-12-04T09:13:54.251Z,30464
2018-12-04T09:14:56.391Z,29408
2018-12-04T09:15:58.514Z,27680
2018-12-04T09:17:00.635Z,26240
2018-12-04T09:18:02.771Z,25952
2018-12-04T09:19:05.221Z,26016
2018-12-04T09:20:07.555Z,25856
2018-12-04T09:21:09.930Z,27136
2018-12-04T09:22:12.234Z,29600
2018-12-04T09:23:14.626Z,31264
2018-12-04T09:24:17.424Z,32160
2018-12-04T09:25:19.823Z,34016
2018-12-04T09:26:22.460Z,31744
2018-12-04T09:27:24.825Z,30336
2018-12-04T09:28:27.143Z,31168
2018-12-04T09:29:29.606Z,32448
2018-12-04T09:30:32.695Z,32832
2018-12-04T09:31:34.804Z,33120
2018-12-04T09:32:36.943Z,32896
2018-12-04T09:33:39.088Z,33664
2018-12-04T09:34:41.728Z,33920
2018-12-04T09:35:43.847Z,34560
2018-12-04T09:36:45.995Z,34624
2018-12-04T09:37:48.110Z,35840
2018-12-04T09:38:50.249Z,36352
2018-12-04T09:39:52.660Z,37888
2018-12-04T09:40:54.769Z,35584
2018-12-04T09:41:57.185Z,33728
2018-12-04T09:43:04.116Z,34112
2018-12-04T09:44:06.802Z,36640
2018-12-04T09:45:08.923Z,38720
2018-12-04T09:46:11.058Z,38592
2018-12-04T09:47:13.173Z,39680
2018-12-04T09:48:15.321Z,42208
2018-12-04T09:49:17.783Z,42624
2018-12-04T09:50:19.909Z,41792
2018-12-04T09:51:22.032Z,41664
2018-12-04T09:52:24.192Z,41408
2018-12-04T09:53:26.310Z,41824
2018-12-04T09:54:29.189Z,41536
2018-12-04T09:55:31.325Z,40352
2018-12-04T09:56:33.440Z,39136
2018-12-04T09:57:35.580Z,38304
2018-12-04T09:58:37.702Z,37664
2018-12-04T09:59:40.133Z,37344
2018-12-04T10:00:42.551Z,37056
2018-12-04T10:03:38.428Z,39040
2018-12-04T10:04:40.671Z,38816
2018-12-04T10:05:43.736Z,38112
2018-12-04T10:06:45.795Z,39040
2018-12-04T10:07:47.821Z,38720
2018-12-04T10:08:49.882Z,36768
2018-12-04T10:09:52.046Z,35776
2018-12-04T10:10:56.526Z,36128
2018-12-04T10:12:00.069Z,35424
2018-12-04T10:13:03.226Z,34592
2018-12-04T10:14:05.267Z,35424
2018-12-04T10:15:07.288Z,36832
2018-12-04T10:16:09.350Z,37568
2018-12-04T10:17:11.681Z,38624
2018-12-04T10:18:13.711Z,39200
2018-12-04T10:19:15.750Z,38400
2018-12-04T10:20:17.833Z,38976
2018-12-04T10:21:19.892Z,39584
2018-12-04T10:22:21.944Z,39840
2018-12-04T10:23:23.985Z,39808
2018-12-04T10:24:26.307Z,41952
2018-12-04T10:25:28.342Z,44448
2018-12-04T10:26:30.400Z,45472
2018-12-04T10:27:32.712Z,45184
2018-12-04T10:28:34.755Z,27232
2018-12-04T10:29:36.798Z,21024
2018-12-04T10:30:39.113Z,27104
2018-12-04T10:31:41.170Z,13048
2018-12-04T10:32:43.217Z,12632
2018-12-04T10:33:45.262Z,12192
2018-12-04T10:34:47.295Z,10564
2018-12-04T10:35:49.365Z,12484
2018-12-04T10:36:51.979Z,19200
2018-12-04T10:37:54.024Z,40288
2018-12-04T10:38:56.075Z,26912
2018-12-04T10:39:58.101Z,23168
2018-12-04T10:41:00.157Z,32192
2018-12-04T10:42:02.482Z,42240
2018-12-04T10:43:04.529Z,14224
2018-12-04T10:44:06.962Z,8328
2018-12-04T10:45:09.008Z,7812
2018-12-04T10:46:11.047Z,43424
2018-12-04T10:47:13.095Z,42080
2018-12-04T10:48:15.397Z,43200
2018-12-04T10:49:17.442Z,38720
2018-12-04T10:50:19.480Z,11680
2018-12-04T10:51:21.511Z,27200
2018-12-04T10:52:23.854Z,31072
2018-12-04T10:53:25.899Z,14768
2018-12-04T10:54:27.938Z,10316
2018-12-04T10:55:30.262Z,34432
2018-12-04T10:56:32.292Z,14956
2018-12-04T10:57:34.315Z,8116
2018-12-04T10:58:36.356Z,35744
2018-12-04T10:59:38.399Z,42080
2018-12-04T11:00:40.771Z,43168
2018-12-04T11:01:43.105Z,28736
2018-12-04T11:02:45.136Z,41024
2018-12-04T11:03:47.168Z,43136
2018-12-04T11:04:49.630Z,43744
2018-12-04T11:05:51.674Z,45472
2018-12-04T11:06:53.715Z,48864
2018-12-04T11:07:55.742Z,12876
2018-12-04T11:08:57.783Z,51776
2018-12-04T11:09:59.813Z,50240
2018-12-04T11:11:01.845Z,48448
2018-12-04T11:12:03.885Z,47136
2018-12-04T11:13:06.294Z,45056
2018-12-04T11:14:08.339Z,44480
2018-12-04T11:15:10.380Z,20320
2018-12-04T11:16:12.803Z,20256
2018-12-04T11:17:14.838Z,34752
2018-12-04T11:18:16.878Z,45504
2018-12-04T11:19:18.912Z,43680
2018-12-04T11:20:20.942Z,43392
2018-12-04T11:21:22.998Z,39360
2018-12-04T11:22:25.031Z,42336
2018-12-04T11:23:27.067Z,41696
2018-12-04T11:24:29.110Z,40800
2018-12-04T11:25:31.149Z,41760
2018-12-04T11:26:33.176Z,43424
2018-12-04T11:27:35.505Z,42720
2018-12-04T11:28:37.547Z,43136
2018-12-04T11:29:39.594Z,43936
2018-12-04T11:30:41.644Z,40608
2018-12-04T11:31:44.077Z,42208
2018-12-04T11:32:46.104Z,40000
2018-12-04T11:33:48.152Z,37536
2018-12-04T11:34:50.178Z,37632
2018-12-04T11:35:52.214Z,38816
2018-12-04T11:36:54.260Z,39840
2018-12-04T11:37:56.280Z,40960
2018-12-04T11:38:58.609Z,42176
2018-12-04T11:40:00.647Z,42240
2018-12-04T11:41:02.698Z,43584
2018-12-04T11:42:04.737Z,42944
2018-12-04T11:43:06.780Z,41280
2018-12-04T11:44:08.851Z,39744
2018-12-04T11:45:10.879Z,39360
2018-12-04T11:46:12.937Z,40096
2018-12-04T11:47:15.256Z,21696
2018-12-04T11:48:17.298Z,41120
2018-12-04T11:49:19.337Z,41024
2018-12-04T11:50:21.391Z,42144
2018-12-04T11:51:23.427Z,42912
2018-12-04T11:52:25.473Z,42976
2018-12-04T11:53:27.525Z,43776
2018-12-04T11:54:29.705Z,43328
2018-12-04T11:55:32.791Z,24832
2018-12-04T11:56:46.407Z,26528
2018-12-04T11:57:48.440Z,25120
2018-12-04T11:58:51.026Z,43040
2018-12-04T11:59:53.076Z,45024
2018-12-04T12:00:55.507Z,16772
2018-12-04T12:01:57.537Z,41888
2018-12-04T12:02:59.854Z,13956
2018-12-04T12:04:01.904Z,36128
2018-12-04T12:05:03.961Z,39904
2018-12-04T12:06:05.987Z,33792
2018-12-04T12:07:08.038Z,14292
2018-12-04T12:08:10.066Z,39648
2018-12-04T12:09:12.103Z,30016
2018-12-04T12:10:14.153Z,27808
2018-12-04T12:11:16.187Z,10112
2018-12-04T12:12:18.524Z,34368
2018-12-04T12:13:20.560Z,31424
2018-12-04T12:14:22.607Z,24512
2018-12-04T12:15:24.638Z,34336
2018-12-04T12:16:26.674Z,31072
2018-12-04T12:17:28.723Z,33472
2018-12-04T12:18:30.760Z,30880
2018-12-04T12:19:33.097Z,15360
2018-12-04T12:20:35.125Z,13152
2018-12-04T12:21:37.549Z,7820
2018-12-04T12:22:39.875Z,15000
2018-12-04T12:23:42.328Z,21344
2018-12-04T12:24:44.363Z,7980
2018-12-04T12:25:46.405Z,10544
2018-12-04T12:26:48.832Z,21248
2018-12-04T12:27:51.235Z,24576
2018-12-04T12:28:53.947Z,8276
2018-12-04T12:29:55.986Z,7672
2018-12-04T12:30:58.412Z,23744
2018-12-04T12:32:00.457Z,14544
2018-12-04T12:33:02.499Z,19840
2018-12-04T12:34:04.847Z,17248
2018-12-04T12:35:06.886Z,15480
2018-12-04T12:36:09.208Z,12684
2018-12-04T12:37:11.241Z,11032
2018-12-04T12:38:13.285Z,9188
2018-12-04T12:39:15.319Z,8520
2018-12-04T12:40:17.365Z,8116
2018-12-04T12:41:19.395Z,8296
2018-12-04T12:42:21.436Z,8820
2018-12-04T12:43:23.478Z,7904
2018-12-04T12:44:25.501Z,7472
2018-12-04T12:45:27.933Z,7388
2018-12-04T12:46:29.976Z,7448
2018-12-04T12:47:32.014Z,7268
2018-12-04T12:48:34.037Z,7280
2018-12-04T12:49:36.074Z,7252
2018-12-04T12:50:38.393Z,7052
2018-12-04T12:51:40.415Z,6980
2018-12-04T12:52:42.474Z,7780
2018-12-04T12:53:45.882Z,8144
2018-12-04T12:54:47.916Z,7688
2018-12-04T12:55:49.949Z,7408
2018-12-04T12:56:51.996Z,7664
2018-12-04T12:57:54.024Z,7916
2018-12-04T12:58:56.056Z,10060
2018-12-04T12:59:58.474Z,11480
2018-12-04T13:01:00.496Z,9888
2018-12-04T13:02:02.544Z,10136
2018-12-04T13:03:04.861Z,11960
2018-12-04T13:04:07.277Z,12552
2018-12-04T13:05:09.304Z,8768
2018-12-04T13:06:11.354Z,9772
2018-12-04T13:07:13.700Z,10412
2018-12-04T13:08:16.139Z,8928
2018-12-04T13:09:18.482Z,7952
2018-12-04T13:10:20.519Z,6832
2018-12-04T13:11:22.585Z,6396
2018-12-04T13:12:24.697Z,6440
2018-12-04T13:13:27.398Z,6664
2018-12-04T13:14:29.447Z,6472
2018-12-04T13:15:31.485Z,6504
2018-12-04T13:16:33.593Z,6260
2018-12-04T13:17:35.895Z,5888
2018-12-04T13:18:37.971Z,5612
2018-12-04T13:19:40.025Z,5544
2018-12-04T13:20:42.089Z,5424
2018-12-04T13:21:44.138Z,5488
2018-12-04T13:22:46.191Z,5592
2018-12-04T13:23:48.610Z,5352
2018-12-04T13:24:50.937Z,5028
2018-12-04T13:25:53.015Z,4900
2018-12-04T13:26:55.045Z,4816
2018-12-04T13:27:57.093Z,4800
2018-12-04T13:28:59.132Z,4828
2018-12-04T13:30:01.288Z,4852
2018-12-04T13:31:03.329Z,4712
2018-12-04T13:32:05.386Z,4968
2018-12-04T13:33:07.714Z,4620
2018-12-04T13:34:09.760Z,4508
2018-12-04T13:35:11.857Z,4980
2018-12-04T13:36:13.977Z,5068
2018-12-04T13:37:16.004Z,5340
2018-12-04T13:38:18.112Z,5100
2018-12-04T13:39:20.219Z,5132
2018-12-04T13:40:22.621Z,4556
2018-12-04T13:41:35.827Z,4284
2018-12-04T13:42:43.784Z,4260
2018-12-04T13:43:47.000Z,4212
2018-12-04T13:44:49.070Z,4076
2018-12-04T13:45:51.422Z,3980
2018-12-04T13:46:53.473Z,3972
2018-12-04T13:47:55.543Z,3944
2018-12-04T13:49:01.971Z,3912
2018-12-04T13:50:04.337Z,3868
2018-12-04T13:51:06.795Z,3876
2018-12-04T13:52:08.886Z,3932
2018-12-04T13:53:10.965Z,3844
2018-12-04T13:54:13.308Z,3820
2018-12-04T13:55:15.394Z,3804
2018-12-04T13:56:17.785Z,3748
2018-12-04T13:57:19.869Z,3764
2018-12-04T13:58:21.952Z,3940
2018-12-04T13:59:24.312Z,4388
2018-12-04T14:00:26.419Z,4520
2018-12-04T14:01:28.819Z,4556
2018-12-04T14:02:30.914Z,4328
2018-12-04T14:03:33.427Z,4300
2018-12-04T14:04:35.568Z,4604
2018-12-04T14:05:38.217Z,4448
2018-12-04T14:06:40.289Z,4408
2018-12-04T14:07:42.813Z,4260
2018-12-04T14:08:46.332Z,3996
2018-12-04T14:09:50.884Z,3952
2018-12-04T14:10:53.537Z,4388
2018-12-04T14:11:55.942Z,4404
2018-12-04T14:12:59.498Z,4136
2018-12-04T14:14:01.537Z,3528
2018-12-04T14:15:04.474Z,3228
2018-12-04T14:16:06.611Z,3056
2018-12-04T14:17:08.958Z,3144
2018-12-04T14:18:11.129Z,3180
2018-12-04T14:19:13.250Z,3208
2018-12-04T14:20:18.129Z,3308
2018-12-04T14:21:21.697Z,3184
2018-12-04T14:22:25.993Z,2824
2018-12-04T14:23:37.415Z,2296